Stuart, OK (74570)

8:03 PM CDT on July 29, 2014 (GMT -0500)
Emergency Operations Center (KOKHOLDE1) Elev 908 ft | 35.08 °N, 96.40 °W | Change Station

Current weather conditions updated 2 minutes ago

Clear
Clear
85.0 °F
Feels Like 89 °F
N
0.0
Wind Variable Wind from West
Gusts 0.0 mph

Tomorrow is forecast to be Much Cooler than today. Showers and thunderstorms.

Today
High -- | Low -- °F
--% Chance of Precip.
Yesterday
High -- | Low -- °F
Precip. -- in
6:32 AM 8:29 PM
Waxing Crescent, 8% visible
Pressure 30.04 in
Visibility 10.0 miles
Clouds Clear
Heat Index 89 °F
Dew Point 69 °F
Humidity 58%
Rainfall 0.00 in
Snow Depth Not available.
UV 0 out of 12
Pollen 4.60 out of 12
Air Quality Not available.
Flu Activity Not available.
METAR KMLC 300053Z AUTO 12003KT 10SM CLR 28/19 A3006 RMK AO2 SLP171 T02780194

More Conditions Fewer Conditions

Pressure 30.04 in
Visibility 10.0 miles
Clouds Clear
Heat Index 89 °F
Dew Point 69 °F
Humidity 58%
Rainfall 0.00 in
Snow Depth Not available.
UV 0 out of 12
Pollen 4.60 out of 12
Air Quality Not available.
Flu Activity Not available.
METAR KMLC 300053Z AUTO 12003KT 10SM CLR 28/19 A3006 RMK AO2 SLP171 T02780194

More Conditions Fewer Conditions

10-Day Weather Forecast

Almanac

Astronomy

Jul. 29, 2014 Rise Set
Actual Time 6:32 AM CDT 8:29 PM CDT
Civil Twilight 6:04 AM CDT 8:57 PM CDT
Nautical Twilight 5:30 AM CDT 9:31 PM CDT
Astronomical Twilight 4:53 AM CDT 10:07 PM CDT
Moon 9:01 AM CDT (7/29) 9:51 PM CDT (7/29)
Length of Visible Light 14h 53m
Length of Day
13h 57m
Tomorrow will be 1m 34s shorter.
Waxing Crescent, 8% of the Moon is Illuminated
Today
Waxing Crescent
Aug 3
First Quarter
Aug 10
Full
Aug 17
Last Quarter
Aug 25
New

Today's Extremes

State Highs State Lows

Community

WunderPhotos

Upload Photos

1,738,939 photos uploaded!

Nearby

Snow Depth

Station Depth Elevation
No new snow has been reported.

Earthquake Activity

City Distance Mag. Time & Date
Guthrie, Oklahoma 97 miles 2.7 5:27 AM CDT
2014-07-24
Langston, Oklahoma 93 miles 3.2 9:03 AM CDT
2014-07-23
Langston, Oklahoma 95 miles 3.3 9:02 PM CDT
2014-07-22
Minimum magnitude displayed is 2.5.

Coastal Water Temperatures

Place Temperature
No Stations Reporting

Nearby Weather Stations

Station Location Temp. Heat Index Dew Point Humidity Wind Precip. Elev Updated Type
MesoWest NAVY , Savanna, OK 85 °F 82 °F - - North  at  - 0.00 in / hr 711 ft 4:50 PM CDT MADIS
Emergency Operations Center, Holdenville, OK 85.0 °F 89 °F 69 °F 58% West  at  0.0 mph 0.00 in / hr 908 ft 8:00 PM CDT Normal
MesoWest GRACE , Wardville, OK 90 °F 87 °F - - North  at  - 0.00 in / hr 678 ft 6:20 PM CDT MADIS
Kinkead Hills, McAlester, OK 83.9 °F 89 °F 72 °F 67% ENE  at  0.0 mph - / hr 808 ft 7:40 PM CDT Normal

Show More Stations Show Fewer Stations